sensor_id;sensor_type;location;lat;lon;timestamp;P1;durP1;ratioP1;P2;durP2;ratioP2
25045;SDS011;13044;49.304;12.840;2022-09-20T00:01:24;1.90;;;1.40;;
25045;SDS011;13044;49.304;12.840;2022-09-20T00:03:58;2.75;;;1.63;;
25045;SDS011;13044;49.304;12.840;2022-09-20T00:06:28;3.22;;;1.50;;
25045;SDS011;13044;49.304;12.840;2022-09-20T00:08:56;6.53;;;1.65;;
25045;SDS011;13044;49.304;12.840;2022-09-20T00:11:25;2.53;;;1.50;;
25045;SDS011;13044;49.304;12.840;2022-09-20T00:13:55;3.42;;;1.67;;
25045;SDS011;13044;49.304;12.840;2022-09-20T00:16:26;6.22;;;1.60;;
25045;SDS011;13044;49.304;12.840;2022-09-20T00:18:57;5.27;;;1.70;;
25045;SDS011;13044;49.304;12.840;2022-09-20T00:21:26;2.47;;;1.40;;
25045;SDS011;13044;49.304;12.840;2022-09-20T00:23:56;6.45;;;1.70;;
25045;SDS011;13044;49.304;12.840;2022-09-20T00:26:23;6.85;;;1.52;;
25045;SDS011;13044;49.304;12.840;2022-09-20T00:28:52;4.47;;;1.50;;
25045;SDS011;13044;49.304;12.840;2022-09-20T00:31:20;2.10;;;1.60;;
25045;SDS011;13044;49.304;12.840;2022-09-20T00:33:47;4.72;;;1.73;;
25045;SDS011;13044;49.304;12.840;2022-09-20T00:36:33;2.65;;;1.67;;
25045;SDS011;13044;49.304;12.840;2022-09-20T00:39:00;3.72;;;1.38;;
25045;SDS011;13044;49.304;12.840;2022-09-20T00:41:29;1.77;;;1.50;;
25045;SDS011;13044;49.304;12.840;2022-09-20T00:43:58;3.20;;;1.20;;
25045;SDS011;13044;49.304;12.840;2022-09-20T00:46:33;3.63;;;1.50;;
25045;SDS011;13044;49.304;12.840;2022-09-20T00:49:10;3.97;;;1.70;;
25045;SDS011;13044;49.304;12.840;2022-09-20T00:51:43;3.05;;;1.33;;
25045;SDS011;13044;49.304;12.840;2022-09-20T00:54:15;2.13;;;1.30;;
25045;SDS011;13044;49.304;12.840;2022-09-20T00:56:45;1.42;;;1.33;;
25045;SDS011;13044;49.304;12.840;2022-09-20T00:59:15;1.52;;;1.27;;
25045;SDS011;13044;49.304;12.840;2022-09-20T01:01:50;1.95;;;1.38;;
25045;SDS011;13044;49.304;12.840;2022-09-20T01:04:22;1.50;;;1.40;;
25045;SDS011;13044;49.304;12.840;2022-09-20T01:06:52;4.35;;;1.30;;
25045;SDS011;13044;49.304;12.840;2022-09-20T01:09:23;3.38;;;1.55;;
25045;SDS011;13044;49.304;12.840;2022-09-20T01:11:50;4.38;;;1.52;;
25045;SDS011;13044;49.304;12.840;2022-09-20T01:14:20;6.68;;;1.70;;
25045;SDS011;13044;49.304;12.840;2022-09-20T01:16:50;2.63;;;1.45;;
25045;SDS011;13044;49.304;12.840;2022-09-20T01:22:19;5.88;;;1.70;;
25045;SDS011;13044;49.304;12.840;2022-09-20T01:25:12;2.83;;;2.08;;
25045;SDS011;13044;49.304;12.840;2022-09-20T01:27:48;5.72;;;2.33;;
25045;SDS011;13044;49.304;12.840;2022-09-20T01:30:18;3.80;;;2.17;;
25045;SDS011;13044;49.304;12.840;2022-09-20T01:35:49;5.53;;;2.20;;
25045;SDS011;13044;49.304;12.840;2022-09-20T01:38:40;3.22;;;2.13;;
25045;SDS011;13044;49.304;12.840;2022-09-20T01:41:45;3.00;;;2.20;;
25045;SDS011;13044;49.304;12.840;2022-09-20T01:44:29;4.15;;;2.38;;
25045;SDS011;13044;49.304;12.840;2022-09-20T01:47:04;3.50;;;2.38;;
25045;SDS011;13044;49.304;12.840;2022-09-20T01:53:16;4.90;;;2.80;;
25045;SDS011;13044;49.304;12.840;2022-09-20T01:56:28;5.28;;;3.17;;
25045;SDS011;13044;49.304;12.840;2022-09-20T01:59:37;8.70;;;3.42;;
25045;SDS011;13044;49.304;12.840;2022-09-20T02:08:16;7.50;;;3.25;;
25045;SDS011;13044;49.304;12.840;2022-09-20T02:11:08;7.05;;;3.30;;
25045;SDS011;13044;49.304;12.840;2022-09-20T02:22:18;10.18;;;4.22;;
25045;SDS011;13044;49.304;12.840;2022-09-20T02:25:14;10.55;;;4.60;;
25045;SDS011;13044;49.304;12.840;2022-09-20T02:34:21;6.18;;;4.57;;
25045;SDS011;13044;49.304;12.840;2022-09-20T02:40:25;10.75;;;4.35;;
25045;SDS011;13044;49.304;12.840;2022-09-20T02:43:30;8.27;;;4.43;;
25045;SDS011;13044;49.304;12.840;2022-09-20T02:46:32;12.80;;;5.47;;
25045;SDS011;13044;49.304;12.840;2022-09-20T02:49:08;6.10;;;4.93;;
25045;SDS011;13044;49.304;12.840;2022-09-20T02:51:51;8.00;;;5.50;;
25045;SDS011;13044;49.304;12.840;2022-09-20T03:00:15;8.55;;;4.82;;
25045;SDS011;13044;49.304;12.840;2022-09-20T03:03:00;12.07;;;5.63;;
25045;SDS011;13044;49.304;12.840;2022-09-20T03:08:33;14.20;;;5.80;;
25045;SDS011;13044;49.304;12.840;2022-09-20T03:11:26;11.27;;;5.38;;
25045;SDS011;13044;49.304;12.840;2022-09-20T03:14:07;10.90;;;5.20;;
25045;SDS011;13044;49.304;12.840;2022-09-20T03:28:28;12.25;;;5.60;;
25045;SDS011;13044;49.304;12.840;2022-09-20T03:37:18;9.57;;;5.55;;
25045;SDS011;13044;49.304;12.840;2022-09-20T03:49:34;15.27;;;7.93;;
25045;SDS011;13044;49.304;12.840;2022-09-20T04:09:45;10.75;;;6.63;;
25045;SDS011;13044;49.304;12.840;2022-09-20T04:19:15;13.25;;;6.95;;
25045;SDS011;13044;49.304;12.840;2022-09-20T04:21:55;10.63;;;6.97;;
25045;SDS011;13044;49.304;12.840;2022-09-20T04:27:14;11.82;;;6.97;;
25045;SDS011;13044;49.304;12.840;2022-09-20T04:57:41;12.88;;;8.23;;
25045;SDS011;13044;49.304;12.840;2022-09-20T05:01:49;16.13;;;8.43;;
25045;SDS011;13044;49.304;12.840;2022-09-20T05:25:35;25.05;;;13.32;;
25045;SDS011;13044;49.304;12.840;2022-09-20T05:28:32;21.73;;;12.30;;
25045;SDS011;13044;49.304;12.840;2022-09-20T05:40:45;19.27;;;10.57;;
25045;SDS011;13044;49.304;12.840;2022-09-20T05:43:34;17.98;;;10.52;;
25045;SDS011;13044;49.304;12.840;2022-09-20T05:46:21;18.15;;;11.07;;
25045;SDS011;13044;49.304;12.840;2022-09-20T05:55:19;17.92;;;11.25;;
25045;SDS011;13044;49.304;12.840;2022-09-20T05:58:43;20.80;;;10.65;;
25045;SDS011;13044;49.304;12.840;2022-09-20T06:01:35;17.15;;;9.85;;
25045;SDS011;13044;49.304;12.840;2022-09-20T06:04:20;18.08;;;10.50;;
25045;SDS011;13044;49.304;12.840;2022-09-20T06:12:30;16.88;;;9.80;;
25045;SDS011;13044;49.304;12.840;2022-09-20T06:20:50;17.58;;;10.23;;
25045;SDS011;13044;49.304;12.840;2022-09-20T06:23:40;23.10;;;9.57;;
25045;SDS011;13044;49.304;12.840;2022-09-20T06:26:15;28.23;;;13.88;;
25045;SDS011;13044;49.304;12.840;2022-09-20T06:28:50;22.17;;;10.43;;
25045;SDS011;13044;49.304;12.840;2022-09-20T06:31:23;17.35;;;9.32;;
25045;SDS011;13044;49.304;12.840;2022-09-20T06:33:59;13.98;;;8.27;;
25045;SDS011;13044;49.304;12.840;2022-09-20T06:36:36;32.63;;;10.98;;
25045;SDS011;13044;49.304;12.840;2022-09-20T06:42:49;18.98;;;10.25;;
25045;SDS011;13044;49.304;12.840;2022-09-20T06:45:16;24.10;;;9.05;;
25045;SDS011;13044;49.304;12.840;2022-09-20T06:47:43;19.17;;;9.43;;
25045;SDS011;13044;49.304;12.840;2022-09-20T06:50:16;21.27;;;8.88;;
25045;SDS011;13044;49.304;12.840;2022-09-20T06:52:44;17.05;;;8.75;;
25045;SDS011;13044;49.304;12.840;2022-09-20T06:55:15;14.90;;;8.07;;
25045;SDS011;13044;49.304;12.840;2022-09-20T06:57:53;15.73;;;7.82;;
25045;SDS011;13044;49.304;12.840;2022-09-20T07:00:20;13.40;;;7.82;;
25045;SDS011;13044;49.304;12.840;2022-09-20T07:02:48;14.48;;;8.05;;
25045;SDS011;13044;49.304;12.840;2022-09-20T07:05:15;12.85;;;7.32;;
25045;SDS011;13044;49.304;12.840;2022-09-20T07:07:47;18.00;;;8.07;;
25045;SDS011;13044;49.304;12.840;2022-09-20T07:10:14;13.27;;;6.18;;
25045;SDS011;13044;49.304;12.840;2022-09-20T07:12:41;11.45;;;6.43;;
25045;SDS011;13044;49.304;12.840;2022-09-20T07:15:08;13.20;;;6.13;;
25045;SDS011;13044;49.304;12.840;2022-09-20T07:17:35;11.13;;;4.97;;
25045;SDS011;13044;49.304;12.840;2022-09-20T07:20:02;7.88;;;5.07;;
25045;SDS011;13044;49.304;12.840;2022-09-20T07:22:29;11.82;;;4.43;;
25045;SDS011;13044;49.304;12.840;2022-09-20T07:24:56;8.35;;;3.85;;
25045;SDS011;13044;49.304;12.840;2022-09-20T07:27:27;8.27;;;3.95;;
25045;SDS011;13044;49.304;12.840;2022-09-20T07:29:54;11.90;;;3.85;;
25045;SDS011;13044;49.304;12.840;2022-09-20T07:32:21;12.55;;;3.53;;
25045;SDS011;13044;49.304;12.840;2022-09-20T07:34:48;14.40;;;4.63;;
25045;SDS011;13044;49.304;12.840;2022-09-20T07:37:16;13.48;;;4.32;;
25045;SDS011;13044;49.304;12.840;2022-09-20T07:39:44;9.45;;;2.80;;
25045;SDS011;13044;49.304;12.840;2022-09-20T07:42:11;9.77;;;3.35;;
25045;SDS011;13044;49.304;12.840;2022-09-20T07:44:38;14.18;;;4.72;;
25045;SDS011;13044;49.304;12.840;2022-09-20T07:47:07;12.50;;;4.15;;
25045;SDS011;13044;49.304;12.840;2022-09-20T07:49:36;9.43;;;4.38;;
25045;SDS011;13044;49.304;12.840;2022-09-20T07:52:02;8.70;;;3.72;;
25045;SDS011;13044;49.304;12.840;2022-09-20T07:54:29;8.05;;;3.40;;
25045;SDS011;13044;49.304;12.840;2022-09-20T07:56:56;9.07;;;2.67;;
25045;SDS011;13044;49.304;12.840;2022-09-20T07:59:23;5.65;;;2.88;;
25045;SDS011;13044;49.304;12.840;2022-09-20T08:01:51;9.07;;;3.08;;
25045;SDS011;13044;49.304;12.840;2022-09-20T08:04:17;13.90;;;3.78;;
25045;SDS011;13044;49.304;12.840;2022-09-20T08:06:44;9.07;;;2.65;;
25045;SDS011;13044;49.304;12.840;2022-09-20T08:09:12;9.18;;;2.67;;
25045;SDS011;13044;49.304;12.840;2022-09-20T08:11:40;8.60;;;2.55;;
25045;SDS011;13044;49.304;12.840;2022-09-20T08:14:11;7.22;;;2.13;;
25045;SDS011;13044;49.304;12.840;2022-09-20T08:16:46;16.98;;;2.40;;
25045;SDS011;13044;49.304;12.840;2022-09-20T08:19:16;8.77;;;1.95;;
25045;SDS011;13044;49.304;12.840;2022-09-20T08:21:48;10.15;;;2.20;;
25045;SDS011;13044;49.304;12.840;2022-09-20T08:24:18;10.05;;;1.98;;
25045;SDS011;13044;49.304;12.840;2022-09-20T08:26:45;5.38;;;2.13;;
25045;SDS011;13044;49.304;12.840;2022-09-20T08:29:13;4.63;;;1.85;;
25045;SDS011;13044;49.304;12.840;2022-09-20T08:31:40;8.60;;;2.42;;
25045;SDS011;13044;49.304;12.840;2022-09-20T08:34:08;6.65;;;1.75;;
25045;SDS011;13044;49.304;12.840;2022-09-20T08:36:38;56.05;;;6.93;;
25045;SDS011;13044;49.304;12.840;2022-09-20T08:39:10;47.92;;;5.70;;
25045;SDS011;13044;49.304;12.840;2022-09-20T08:42:07;37.88;;;5.22;;
25045;SDS011;13044;49.304;12.840;2022-09-20T08:44:56;14.57;;;2.33;;
25045;SDS011;13044;49.304;12.840;2022-09-20T08:47:29;9.25;;;2.45;;
25045;SDS011;13044;49.304;12.840;2022-09-20T08:49:58;11.60;;;2.25;;
25045;SDS011;13044;49.304;12.840;2022-09-20T08:52:43;9.02;;;2.20;;
25045;SDS011;13044;49.304;12.840;2022-09-20T08:58:02;9.63;;;2.33;;
25045;SDS011;13044;49.304;12.840;2022-09-20T09:00:34;8.00;;;2.17;;
25045;SDS011;13044;49.304;12.840;2022-09-20T09:03:05;7.85;;;2.47;;
25045;SDS011;13044;49.304;12.840;2022-09-20T09:08:23;7.00;;;2.97;;
25045;SDS011;13044;49.304;12.840;2022-09-20T09:16:56;4.63;;;1.65;;
25045;SDS011;13044;49.304;12.840;2022-09-20T09:19:24;9.88;;;1.40;;
25045;SDS011;13044;49.304;12.840;2022-09-20T09:22:00;5.82;;;1.55;;
25045;SDS011;13044;49.304;12.840;2022-09-20T09:24:30;4.60;;;1.20;;
25045;SDS011;13044;49.304;12.840;2022-09-20T09:27:05;3.97;;;1.55;;
25045;SDS011;13044;49.304;12.840;2022-09-20T09:29:52;7.07;;;1.80;;
25045;SDS011;13044;49.304;12.840;2022-09-20T09:32:23;7.07;;;1.45;;
25045;SDS011;13044;49.304;12.840;2022-09-20T09:34:54;5.35;;;1.58;;
25045;SDS011;13044;49.304;12.840;2022-09-20T09:37:24;3.05;;;1.50;;
25045;SDS011;13044;49.304;12.840;2022-09-20T09:40:04;5.97;;;1.38;;
25045;SDS011;13044;49.304;12.840;2022-09-20T09:42:34;7.53;;;2.70;;
25045;SDS011;13044;49.304;12.840;2022-09-20T09:45:23;6.10;;;1.48;;
25045;SDS011;13044;49.304;12.840;2022-09-20T09:48:21;3.97;;;1.30;;
25045;SDS011;13044;49.304;12.840;2022-09-20T09:53:51;5.05;;;1.02;;
25045;SDS011;13044;49.304;12.840;2022-09-20T10:05:07;4.80;;;1.00;;
25045;SDS011;13044;49.304;12.840;2022-09-20T10:13:48;2.57;;;0.97;;
25045;SDS011;13044;49.304;12.840;2022-09-20T10:17:36;1.85;;;0.80;;
25045;SDS011;13044;49.304;12.840;2022-09-20T10:23:01;5.70;;;1.08;;
25045;SDS011;13044;49.304;12.840;2022-09-20T10:32:04;3.47;;;0.75;;
25045;SDS011;13044;49.304;12.840;2022-09-20T10:58:48;5.43;;;1.73;;
25045;SDS011;13044;49.304;12.840;2022-09-20T11:04:57;6.97;;;1.55;;
25045;SDS011;13044;49.304;12.840;2022-09-20T11:07:55;6.40;;;1.48;;
25045;SDS011;13044;49.304;12.840;2022-09-20T11:13:06;3.58;;;1.10;;
25045;SDS011;13044;49.304;12.840;2022-09-20T11:16:01;3.05;;;1.35;;
25045;SDS011;13044;49.304;12.840;2022-09-20T11:19:20;1.30;;;1.00;;
25045;SDS011;13044;49.304;12.840;2022-09-20T11:22:11;1.23;;;0.70;;
25045;SDS011;13044;49.304;12.840;2022-09-20T11:24:49;1.55;;;1.17;;
25045;SDS011;13044;49.304;12.840;2022-09-20T11:27:46;1.90;;;1.20;;
25045;SDS011;13044;49.304;12.840;2022-09-20T11:30:20;1.88;;;1.17;;
25045;SDS011;13044;49.304;12.840;2022-09-20T11:32:59;1.27;;;0.90;;
25045;SDS011;13044;49.304;12.840;2022-09-20T11:35:45;1.75;;;0.93;;
25045;SDS011;13044;49.304;12.840;2022-09-20T11:38:36;2.47;;;1.13;;
25045;SDS011;13044;49.304;12.840;2022-09-20T11:41:23;3.35;;;1.80;;
25045;SDS011;13044;49.304;12.840;2022-09-20T11:44:00;1.65;;;0.90;;
25045;SDS011;13044;49.304;12.840;2022-09-20T11:46:35;2.55;;;0.90;;
25045;SDS011;13044;49.304;12.840;2022-09-20T11:49:46;3.38;;;1.30;;
25045;SDS011;13044;49.304;12.840;2022-09-20T11:52:53;1.40;;;1.30;;
25045;SDS011;13044;49.304;12.840;2022-09-20T11:58:14;4.75;;;0.90;;
25045;SDS011;13044;49.304;12.840;2022-09-20T12:00:45;1.63;;;0.50;;
25045;SDS011;13044;49.304;12.840;2022-09-20T12:03:34;3.47;;;0.60;;
25045;SDS011;13044;49.304;12.840;2022-09-20T12:06:19;1.83;;;0.50;;
25045;SDS011;13044;49.304;12.840;2022-09-20T12:08:55;2.15;;;0.50;;
25045;SDS011;13044;49.304;12.840;2022-09-20T12:11:30;4.60;;;1.10;;
25045;SDS011;13044;49.304;12.840;2022-09-20T12:14:17;1.70;;;0.80;;
25045;SDS011;13044;49.304;12.840;2022-09-20T12:16:47;0.47;;;0.47;;
25045;SDS011;13044;49.304;12.840;2022-09-20T12:24:26;4.22;;;1.48;;
25045;SDS011;13044;49.304;12.840;2022-09-20T12:26:59;1.00;;;0.73;;
25045;SDS011;13044;49.304;12.840;2022-09-20T12:29:53;5.60;;;1.77;;
25045;SDS011;13044;49.304;12.840;2022-09-20T12:35:56;3.10;;;1.20;;
25045;SDS011;13044;49.304;12.840;2022-09-20T12:40:58;1.50;;;1.40;;
25045;SDS011;13044;49.304;12.840;2022-09-20T12:43:35;2.47;;;1.33;;
25045;SDS011;13044;49.304;12.840;2022-09-20T12:46:18;0.90;;;0.88;;
25045;SDS011;13044;49.304;12.840;2022-09-20T12:49:07;2.38;;;1.98;;
25045;SDS011;13044;49.304;12.840;2022-09-20T13:00:48;1.73;;;1.35;;
25045;SDS011;13044;49.304;12.840;2022-09-20T13:03:27;1.75;;;1.50;;
25045;SDS011;13044;49.304;12.840;2022-09-20T13:08:34;1.25;;;1.00;;
25045;SDS011;13044;49.304;12.840;2022-09-20T13:11:17;1.00;;;0.85;;
25045;SDS011;13044;49.304;12.840;2022-09-20T13:14:17;2.05;;;0.70;;
25045;SDS011;13044;49.304;12.840;2022-09-20T13:16:50;1.05;;;0.70;;
25045;SDS011;13044;49.304;12.840;2022-09-20T13:19:52;1.20;;;0.70;;
25045;SDS011;13044;49.304;12.840;2022-09-20T13:24:52;1.55;;;0.70;;
25045;SDS011;13044;49.304;12.840;2022-09-20T13:27:25;1.47;;;0.70;;
25045;SDS011;13044;49.304;12.840;2022-09-20T13:30:13;0.57;;;0.50;;
25045;SDS011;13044;49.304;12.840;2022-09-20T13:33:14;1.02;;;0.45;;
25045;SDS011;13044;49.304;12.840;2022-09-20T13:35:51;1.35;;;0.65;;
25045;SDS011;13044;49.304;12.840;2022-09-20T13:38:22;2.00;;;1.00;;
25045;SDS011;13044;49.304;12.840;2022-09-20T13:43:38;3.25;;;0.95;;
25045;SDS011;13044;49.304;12.840;2022-09-20T13:46:12;2.92;;;1.00;;
25045;SDS011;13044;49.304;12.840;2022-09-20T13:48:52;7.90;;;1.50;;
25045;SDS011;13044;49.304;12.840;2022-09-20T13:51:39;2.70;;;1.70;;
25045;SDS011;13044;49.304;12.840;2022-09-20T13:54:16;6.40;;;1.10;;
25045;SDS011;13044;49.304;12.840;2022-09-20T13:56:55;2.15;;;1.23;;
25045;SDS011;13044;49.304;12.840;2022-09-20T13:59:29;2.25;;;0.82;;
25045;SDS011;13044;49.304;12.840;2022-09-20T14:04:45;3.15;;;1.15;;
25045;SDS011;13044;49.304;12.840;2022-09-20T14:07:12;0.68;;;0.63;;
25045;SDS011;13044;49.304;12.840;2022-09-20T14:09:40;1.10;;;0.90;;
25045;SDS011;13044;49.304;12.840;2022-09-20T14:12:07;2.47;;;0.82;;
25045;SDS011;13044;49.304;12.840;2022-09-20T14:14:36;3.90;;;0.80;;
25045;SDS011;13044;49.304;12.840;2022-09-20T14:17:04;0.75;;;0.50;;
25045;SDS011;13044;49.304;12.840;2022-09-20T14:19:38;2.97;;;0.80;;
25045;SDS011;13044;49.304;12.840;2022-09-20T14:22:07;5.03;;;1.33;;
25045;SDS011;13044;49.304;12.840;2022-09-20T14:24:58;0.60;;;0.60;;
25045;SDS011;13044;49.304;12.840;2022-09-20T14:27:39;2.13;;;1.40;;
25045;SDS011;13044;49.304;12.840;2022-09-20T14:30:06;1.38;;;0.90;;
25045;SDS011;13044;49.304;12.840;2022-09-20T14:32:54;2.05;;;1.15;;
25045;SDS011;13044;49.304;12.840;2022-09-20T14:35:22;3.03;;;1.40;;
25045;SDS011;13044;49.304;12.840;2022-09-20T14:37:50;34.95;;;10.07;;
25045;SDS011;13044;49.304;12.840;2022-09-20T14:42:57;3.17;;;1.48;;
25045;SDS011;13044;49.304;12.840;2022-09-20T14:50:43;1.52;;;0.93;;
25045;SDS011;13044;49.304;12.840;2022-09-20T14:56:53;1.85;;;0.90;;
25045;SDS011;13044;49.304;12.840;2022-09-20T15:01:43;3.45;;;1.65;;
25045;SDS011;13044;49.304;12.840;2022-09-20T15:04:28;11.20;;;2.45;;
25045;SDS011;13044;49.304;12.840;2022-09-20T15:07:01;6.07;;;2.78;;
25045;SDS011;13044;49.304;12.840;2022-09-20T15:09:31;5.20;;;2.10;;
25045;SDS011;13044;49.304;12.840;2022-09-20T15:14:57;1.35;;;0.90;;
25045;SDS011;13044;49.304;12.840;2022-09-20T15:17:24;4.95;;;1.27;;
25045;SDS011;13044;49.304;12.840;2022-09-20T15:19:51;2.28;;;1.23;;
25045;SDS011;13044;49.304;12.840;2022-09-20T15:22:18;3.88;;;2.60;;
25045;SDS011;13044;49.304;12.840;2022-09-20T15:24:45;5.70;;;2.78;;
25045;SDS011;13044;49.304;12.840;2022-09-20T15:27:13;4.22;;;1.90;;
25045;SDS011;13044;49.304;12.840;2022-09-20T15:29:40;5.00;;;1.63;;
25045;SDS011;13044;49.304;12.840;2022-09-20T15:32:08;4.70;;;1.65;;
25045;SDS011;13044;49.304;12.840;2022-09-20T15:34:36;6.10;;;2.03;;
25045;SDS011;13044;49.304;12.840;2022-09-20T15:37:03;11.52;;;2.05;;
25045;SDS011;13044;49.304;12.840;2022-09-20T15:39:30;3.08;;;1.33;;
25045;SDS011;13044;49.304;12.840;2022-09-20T15:41:57;2.15;;;1.17;;
25045;SDS011;13044;49.304;12.840;2022-09-20T15:44:24;4.13;;;1.38;;
25045;SDS011;13044;49.304;12.840;2022-09-20T15:46:51;8.65;;;4.38;;
25045;SDS011;13044;49.304;12.840;2022-09-20T15:49:18;11.65;;;6.00;;
25045;SDS011;13044;49.304;12.840;2022-09-20T15:51:46;13.13;;;3.47;;
25045;SDS011;13044;49.304;12.840;2022-09-20T15:54:13;4.00;;;1.85;;
25045;SDS011;13044;49.304;12.840;2022-09-20T15:56:40;6.35;;;2.78;;
25045;SDS011;13044;49.304;12.840;2022-09-20T15:59:09;3.97;;;1.98;;
25045;SDS011;13044;49.304;12.840;2022-09-20T16:01:39;5.50;;;2.47;;
25045;SDS011;13044;49.304;12.840;2022-09-20T16:04:08;4.05;;;1.55;;
25045;SDS011;13044;49.304;12.840;2022-09-20T16:06:42;3.28;;;1.83;;
25045;SDS011;13044;49.304;12.840;2022-09-20T16:09:11;3.10;;;1.30;;
25045;SDS011;13044;49.304;12.840;2022-09-20T16:11:39;3.00;;;1.50;;
25045;SDS011;13044;49.304;12.840;2022-09-20T16:14:06;3.08;;;1.42;;
25045;SDS011;13044;49.304;12.840;2022-09-20T16:16:34;3.08;;;0.90;;
25045;SDS011;13044;49.304;12.840;2022-09-20T16:19:06;4.40;;;2.15;;
25045;SDS011;13044;49.304;12.840;2022-09-20T16:21:50;3.17;;;1.40;;
25045;SDS011;13044;49.304;12.840;2022-09-20T16:24:25;4.10;;;1.70;;
25045;SDS011;13044;49.304;12.840;2022-09-20T16:26:54;4.70;;;2.80;;
25045;SDS011;13044;49.304;12.840;2022-09-20T16:29:22;4.35;;;2.28;;
25045;SDS011;13044;49.304;12.840;2022-09-20T16:31:51;6.30;;;2.50;;
25045;SDS011;13044;49.304;12.840;2022-09-20T16:34:23;8.40;;;2.40;;
25045;SDS011;13044;49.304;12.840;2022-09-20T16:36:58;4.95;;;1.85;;
25045;SDS011;13044;49.304;12.840;2022-09-20T16:39:28;4.22;;;2.10;;
25045;SDS011;13044;49.304;12.840;2022-09-20T16:41:57;5.68;;;2.42;;
25045;SDS011;13044;49.304;12.840;2022-09-20T16:44:36;7.60;;;4.10;;
25045;SDS011;13044;49.304;12.840;2022-09-20T16:47:08;10.25;;;3.63;;
25045;SDS011;13044;49.304;12.840;2022-09-20T16:49:41;9.32;;;3.97;;
25045;SDS011;13044;49.304;12.840;2022-09-20T16:52:08;9.65;;;4.30;;
25045;SDS011;13044;49.304;12.840;2022-09-20T16:54:36;12.57;;;5.90;;
25045;SDS011;13044;49.304;12.840;2022-09-20T16:57:03;11.23;;;6.20;;
25045;SDS011;13044;49.304;12.840;2022-09-20T16:59:30;8.90;;;4.22;;
25045;SDS011;13044;49.304;12.840;2022-09-20T17:01:57;10.73;;;5.88;;
25045;SDS011;13044;49.304;12.840;2022-09-20T17:04:24;9.75;;;5.40;;
25045;SDS011;13044;49.304;12.840;2022-09-20T17:06:51;12.90;;;4.03;;
25045;SDS011;13044;49.304;12.840;2022-09-20T17:09:18;8.23;;;4.00;;
25045;SDS011;13044;49.304;12.840;2022-09-20T17:11:46;9.35;;;4.47;;
25045;SDS011;13044;49.304;12.840;2022-09-20T17:14:16;5.03;;;3.85;;
25045;SDS011;13044;49.304;12.840;2022-09-20T17:16:45;7.13;;;4.55;;
25045;SDS011;13044;49.304;12.840;2022-09-20T17:19:14;8.73;;;4.53;;
25045;SDS011;13044;49.304;12.840;2022-09-20T17:21:44;11.20;;;4.95;;
25045;SDS011;13044;49.304;12.840;2022-09-20T17:24:17;8.80;;;5.18;;
25045;SDS011;13044;49.304;12.840;2022-09-20T17:26:46;13.20;;;4.65;;
25045;SDS011;13044;49.304;12.840;2022-09-20T17:29:15;10.20;;;5.10;;
25045;SDS011;13044;49.304;12.840;2022-09-20T17:31:45;11.52;;;5.78;;
25045;SDS011;13044;49.304;12.840;2022-09-20T17:34:21;8.98;;;5.78;;
25045;SDS011;13044;49.304;12.840;2022-09-20T17:36:47;12.63;;;8.30;;
25045;SDS011;13044;49.304;12.840;2022-09-20T17:39:15;10.32;;;6.80;;
25045;SDS011;13044;49.304;12.840;2022-09-20T17:41:46;7.22;;;4.70;;
25045;SDS011;13044;49.304;12.840;2022-09-20T17:44:15;9.95;;;5.45;;
25045;SDS011;13044;49.304;12.840;2022-09-20T17:46:44;7.07;;;4.97;;
25045;SDS011;13044;49.304;12.840;2022-09-20T17:49:15;7.47;;;4.90;;
25045;SDS011;13044;49.304;12.840;2022-09-20T17:51:45;13.30;;;7.82;;
25045;SDS011;13044;49.304;12.840;2022-09-20T17:54:15;18.40;;;10.23;;
25045;SDS011;13044;49.304;12.840;2022-09-20T17:56:43;20.92;;;11.02;;
25045;SDS011;13044;49.304;12.840;2022-09-20T17:59:13;9.27;;;5.70;;
25045;SDS011;13044;49.304;12.840;2022-09-20T18:01:41;8.88;;;6.07;;
25045;SDS011;13044;49.304;12.840;2022-09-20T18:04:09;18.98;;;7.50;;
25045;SDS011;13044;49.304;12.840;2022-09-20T18:06:41;12.63;;;5.95;;
25045;SDS011;13044;49.304;12.840;2022-09-20T18:09:13;6.35;;;4.32;;
25045;SDS011;13044;49.304;12.840;2022-09-20T18:11:46;7.00;;;4.32;;
25045;SDS011;13044;49.304;12.840;2022-09-20T18:14:19;7.63;;;3.70;;
25045;SDS011;13044;49.304;12.840;2022-09-20T18:16:52;12.88;;;5.75;;
25045;SDS011;13044;49.304;12.840;2022-09-20T18:19:23;13.52;;;6.25;;
25045;SDS011;13044;49.304;12.840;2022-09-20T18:21:50;7.05;;;5.00;;
25045;SDS011;13044;49.304;12.840;2022-09-20T18:24:17;13.80;;;6.43;;
25045;SDS011;13044;49.304;12.840;2022-09-20T18:26:43;10.55;;;5.07;;
25045;SDS011;13044;49.304;12.840;2022-09-20T18:29:11;11.15;;;5.07;;
25045;SDS011;13044;49.304;12.840;2022-09-20T18:31:46;34.70;;;10.05;;
25045;SDS011;13044;49.304;12.840;2022-09-20T18:34:19;71.13;;;22.75;;
25045;SDS011;13044;49.304;12.840;2022-09-20T18:36:52;25.45;;;8.23;;
25045;SDS011;13044;49.304;12.840;2022-09-20T18:39:22;49.28;;;19.98;;
25045;SDS011;13044;49.304;12.840;2022-09-20T18:41:51;42.95;;;18.85;;
25045;SDS011;13044;49.304;12.840;2022-09-20T18:44:18;27.73;;;13.20;;
25045;SDS011;13044;49.304;12.840;2022-09-20T18:46:46;31.27;;;14.20;;
25045;SDS011;13044;49.304;12.840;2022-09-20T18:49:14;35.15;;;18.17;;
25045;SDS011;13044;49.304;12.840;2022-09-20T18:51:42;22.83;;;12.50;;
25045;SDS011;13044;49.304;12.840;2022-09-20T18:54:10;10.60;;;6.13;;
25045;SDS011;13044;49.304;12.840;2022-09-20T18:56:38;19.38;;;7.88;;
25045;SDS011;13044;49.304;12.840;2022-09-20T18:59:11;9.30;;;5.47;;
25045;SDS011;13044;49.304;12.840;2022-09-20T19:10:12;9.25;;;4.85;;
25045;SDS011;13044;49.304;12.840;2022-09-20T19:13:03;9.45;;;4.28;;
25045;SDS011;13044;49.304;12.840;2022-09-20T19:19:01;7.57;;;4.55;;
25045;SDS011;13044;49.304;12.840;2022-09-20T19:22:17;5.50;;;3.42;;
25045;SDS011;13044;49.304;12.840;2022-09-20T19:25:58;5.55;;;3.40;;
25045;SDS011;13044;49.304;12.840;2022-09-20T19:28:09;13.13;;;5.65;;
25045;SDS011;13044;49.304;12.840;2022-09-20T19:30:38;6.70;;;4.30;;
25045;SDS011;13044;49.304;12.840;2022-09-20T19:33:11;10.75;;;4.85;;
25045;SDS011;13044;49.304;12.840;2022-09-20T19:35:44;9.02;;;5.65;;
25045;SDS011;13044;49.304;12.840;2022-09-20T19:38:33;11.38;;;5.63;;
25045;SDS011;13044;49.304;12.840;2022-09-20T19:50:13;7.88;;;4.60;;
25045;SDS011;13044;49.304;12.840;2022-09-20T19:53:12;10.35;;;5.38;;
25045;SDS011;13044;49.304;12.840;2022-09-20T19:55:43;9.80;;;5.13;;
25045;SDS011;13044;49.304;12.840;2022-09-20T19:58:15;10.77;;;5.45;;
25045;SDS011;13044;49.304;12.840;2022-09-20T20:00:43;13.52;;;6.00;;
25045;SDS011;13044;49.304;12.840;2022-09-20T20:03:12;13.25;;;6.95;;
25045;SDS011;13044;49.304;12.840;2022-09-20T20:05:41;13.13;;;6.25;;
25045;SDS011;13044;49.304;12.840;2022-09-20T20:08:41;9.70;;;6.10;;
25045;SDS011;13044;49.304;12.840;2022-09-20T20:14:19;16.55;;;7.13;;
25045;SDS011;13044;49.304;12.840;2022-09-20T20:17:23;9.75;;;4.53;;
25045;SDS011;13044;49.304;12.840;2022-09-20T20:20:31;8.02;;;4.88;;
25045;SDS011;13044;49.304;12.840;2022-09-20T20:26:09;9.93;;;5.25;;
25045;SDS011;13044;49.304;12.840;2022-09-20T20:28:49;7.65;;;5.22;;
25045;SDS011;13044;49.304;12.840;2022-09-20T20:31:18;9.48;;;5.60;;
25045;SDS011;13044;49.304;12.840;2022-09-20T20:33:46;7.40;;;4.93;;
25045;SDS011;13044;49.304;12.840;2022-09-20T20:36:13;8.57;;;5.53;;
25045;SDS011;13044;49.304;12.840;2022-09-20T20:38:42;6.93;;;4.85;;
25045;SDS011;13044;49.304;12.840;2022-09-20T20:41:15;9.10;;;5.75;;